createdAt,value
2023-03-12T00:00:28.870Z,2.87
2023-03-12T00:02:57.265Z,2.13
2023-03-12T00:05:26.990Z,2.00
2023-03-12T00:07:59.798Z,2.30
2023-03-12T00:10:28.262Z,4.73
2023-03-12T00:12:56.442Z,3.50
2023-03-12T00:15:24.826Z,16.80
2023-03-12T00:17:54.068Z,4.23
2023-03-12T00:20:23.570Z,2.17
2023-03-12T00:22:53.232Z,2.47
2023-03-12T00:25:22.291Z,2.50
2023-03-12T00:27:50.557Z,3.17
2023-03-12T00:30:18.909Z,3.27
2023-03-12T00:32:47.071Z,4.23
2023-03-12T00:35:15.445Z,2.50
2023-03-12T00:37:43.618Z,5.73
2023-03-12T00:40:14.513Z,2.30
2023-03-12T00:42:42.902Z,2.60
2023-03-12T00:45:14.286Z,2.20
2023-03-12T00:47:42.371Z,5.30
2023-03-12T00:50:12.069Z,3.37
2023-03-12T00:52:40.298Z,4.27
2023-03-12T00:55:09.056Z,4.97
2023-03-12T00:57:38.579Z,2.73
2023-03-12T01:00:10.645Z,4.30
2023-03-12T01:02:38.957Z,24.77
2023-03-12T01:05:08.729Z,5.70
2023-03-12T01:07:37.388Z,3.20
2023-03-12T01:10:06.772Z,5.07
2023-03-12T01:12:34.811Z,4.40
2023-03-12T01:15:05.136Z,6.07
2023-03-12T01:17:33.512Z,4.40
2023-03-12T01:20:01.984Z,3.73
2023-03-12T01:22:30.178Z,3.20
2023-03-12T01:24:58.442Z,5.50
2023-03-12T01:27:26.566Z,6.13
2023-03-12T01:29:54.793Z,4.30
2023-03-12T01:32:25.483Z,4.60
2023-03-12T01:34:53.629Z,3.60
2023-03-12T01:37:21.898Z,6.90
2023-03-12T01:39:50.142Z,4.83
2023-03-12T01:42:18.299Z,4.37
2023-03-12T01:44:51.644Z,9.83
2023-03-12T01:47:19.855Z,6.07
2023-03-12T01:49:51.137Z,3.60
2023-03-12T01:52:23.288Z,7.90
2023-03-12T01:54:55.838Z,9.23
2023-03-12T01:57:27.926Z,3.30
2023-03-12T02:00:01.377Z,5.40
2023-03-12T02:02:30.808Z,4.40
2023-03-12T02:05:08.249Z,10.97
2023-03-12T02:07:36.848Z,8.23
2023-03-12T02:10:06.733Z,6.60
2023-03-12T02:12:34.938Z,7.30
2023-03-12T02:15:03.221Z,7.07
2023-03-12T02:17:32.634Z,4.00
2023-03-12T02:20:12.055Z,4.97
2023-03-12T02:22:43.910Z,5.33
2023-03-12T02:25:30.929Z,6.57
2023-03-12T02:28:01.394Z,12.53
2023-03-12T02:30:31.486Z,4.97
2023-03-12T02:33:02.877Z,6.17
2023-03-12T02:35:31.201Z,6.70
2023-03-12T02:37:59.526Z,5.97
2023-03-12T02:40:36.726Z,6.17
2023-03-12T02:43:09.910Z,7.17
2023-03-12T02:45:39.444Z,5.43
2023-03-12T02:48:10.445Z,7.23
2023-03-12T02:50:38.573Z,7.17
2023-03-12T02:53:06.735Z,8.23
2023-03-12T02:55:36.314Z,6.90
2023-03-12T02:58:04.503Z,5.27
2023-03-12T03:00:33.057Z,6.27
2023-03-12T03:03:01.645Z,5.07
2023-03-12T03:05:29.794Z,6.30
2023-03-12T03:07:57.905Z,6.50
2023-03-12T03:10:26.041Z,6.73
2023-03-12T03:12:55.565Z,5.23
2023-03-12T03:15:23.748Z,6.03
2023-03-12T03:17:51.880Z,5.57
2023-03-12T03:20:21.403Z,4.30
2023-03-12T03:22:49.546Z,6.13
2023-03-12T03:25:18.821Z,6.30
2023-03-12T03:27:47.452Z,4.00
2023-03-12T03:30:17.962Z,4.20
2023-03-12T03:32:46.164Z,4.90
2023-03-12T03:35:14.599Z,6.80
2023-03-12T03:37:42.741Z,4.13
2023-03-12T03:40:12.521Z,5.70
2023-03-12T03:42:41.580Z,4.53
2023-03-12T03:45:10.910Z,5.87
2023-03-12T03:47:40.456Z,4.47
2023-03-12T03:50:09.224Z,6.00
2023-03-12T03:52:37.345Z,5.97
2023-03-12T03:55:06.686Z,5.23
2023-03-12T03:57:35.030Z,4.47
2023-03-12T04:00:08.997Z,4.53
2023-03-12T04:02:37.353Z,4.00
2023-03-12T04:05:07.424Z,4.47
2023-03-12T04:07:35.633Z,3.47
2023-03-12T04:10:04.068Z,3.00
2023-03-12T04:12:32.166Z,3.30
2023-03-12T04:15:00.300Z,3.43
2023-03-12T04:17:29.338Z,5.67
2023-03-12T04:19:57.361Z,4.43
2023-03-12T04:22:27.229Z,4.90
2023-03-12T04:24:55.781Z,3.23
2023-03-12T04:27:24.704Z,5.00
2023-03-12T04:29:52.799Z,4.10
2023-03-12T04:32:21.592Z,4.93
2023-03-12T04:34:49.742Z,4.73
2023-03-12T04:37:18.169Z,5.30
2023-03-12T04:39:47.842Z,6.10
2023-03-12T04:42:16.025Z,5.23
2023-03-12T04:44:44.570Z,7.23
2023-03-12T04:47:12.800Z,6.03
2023-03-12T04:49:41.041Z,6.33
2023-03-12T04:52:09.184Z,10.47
2023-03-12T04:54:37.796Z,5.37
2023-03-12T04:57:07.569Z,5.30
2023-03-12T04:59:35.790Z,7.47
2023-03-12T05:02:03.807Z,5.93
2023-03-12T05:04:33.808Z,5.03
2023-03-12T05:07:02.032Z,3.73
2023-03-12T05:09:30.268Z,4.23
2023-03-12T05:11:58.409Z,3.17
2023-03-12T05:14:28.152Z,4.30
2023-03-12T05:16:56.441Z,4.50
2023-03-12T05:19:24.856Z,3.37
2023-03-12T05:21:52.962Z,3.40
2023-03-12T05:24:22.152Z,3.90
2023-03-12T05:26:50.687Z,3.03
2023-03-12T05:29:19.485Z,3.47
2023-03-12T05:31:50.273Z,3.93
2023-03-12T05:34:18.502Z,4.07
2023-03-12T05:36:46.716Z,4.37
2023-03-12T05:39:14.898Z,2.93
2023-03-12T05:41:42.948Z,5.27
2023-03-12T05:44:12.647Z,4.00
2023-03-12T05:46:40.848Z,2.90
2023-03-12T05:49:10.885Z,7.13
2023-03-12T05:51:39.195Z,2.73
2023-03-12T05:54:07.354Z,6.33
2023-03-12T05:56:37.555Z,7.87
2023-03-12T05:59:05.850Z,4.37
2023-03-12T06:01:34.347Z,6.60
2023-03-12T06:04:02.524Z,3.73
2023-03-12T06:06:33.232Z,9.37
2023-03-12T06:09:01.508Z,4.63
2023-03-12T06:11:29.693Z,2.70
2023-03-12T06:13:58.226Z,4.80
2023-03-12T06:16:28.405Z,4.60
2023-03-12T06:18:57.795Z,4.10
2023-03-12T06:21:28.659Z,4.40
2023-03-12T06:23:58.455Z,2.77
2023-03-12T06:26:27.132Z,2.53
2023-03-12T06:28:55.713Z,2.30
2023-03-12T06:31:25.139Z,4.90
2023-03-12T06:33:53.886Z,2.40
2023-03-12T06:36:23.100Z,2.87
2023-03-12T06:38:51.398Z,6.50
2023-03-12T06:41:21.602Z,4.13
2023-03-12T06:43:50.362Z,3.93
2023-03-12T06:46:21.989Z,3.00
2023-03-12T06:48:50.724Z,2.50
2023-03-12T06:51:19.445Z,2.00
2023-03-12T06:53:47.870Z,3.10
2023-03-12T06:56:16.451Z,3.93
2023-03-12T06:58:46.367Z,4.73
2023-03-12T07:01:14.534Z,3.87
2023-03-12T07:03:42.695Z,3.17
2023-03-12T07:06:16.113Z,6.30
2023-03-12T07:08:44.611Z,3.57
2023-03-12T07:11:13.673Z,3.13
2023-03-12T07:13:42.262Z,3.83
2023-03-12T07:16:12.668Z,4.73
2023-03-12T07:18:40.993Z,1.93
2023-03-12T07:21:09.201Z,1.80
2023-03-12T07:23:37.459Z,1.70
2023-03-12T07:26:06.969Z,1.50
2023-03-12T07:28:36.433Z,3.60
2023-03-12T07:31:07.392Z,2.10
2023-03-12T07:33:38.406Z,2.40
2023-03-12T07:36:09.799Z,4.97
2023-03-12T07:38:38.918Z,3.00
2023-03-12T07:41:07.683Z,2.13
2023-03-12T07:43:35.977Z,2.17
2023-03-12T07:46:04.595Z,2.13
2023-03-12T07:48:32.874Z,3.80
2023-03-12T07:51:02.541Z,2.17
2023-03-12T07:53:30.805Z,3.67
2023-03-12T07:55:59.681Z,5.33
2023-03-12T07:58:28.080Z,2.97
2023-03-12T08:00:57.329Z,1.97
2023-03-12T08:03:26.204Z,2.93
2023-03-12T08:06:00.549Z,3.57
2023-03-12T08:08:31.571Z,1.93
2023-03-12T08:11:00.513Z,3.37
2023-03-12T08:13:29.193Z,2.17
2023-03-12T08:15:58.970Z,2.60
2023-03-12T08:18:28.133Z,2.80
2023-03-12T08:20:57.037Z,4.50
2023-03-12T08:23:26.670Z,4.20
2023-03-12T08:25:56.738Z,3.90
2023-03-12T08:28:26.452Z,1.80
2023-03-12T08:30:57.792Z,3.83
2023-03-12T08:33:25.985Z,1.77
2023-03-12T08:35:54.431Z,1.80
2023-03-12T08:38:22.991Z,1.97
2023-03-12T08:40:58.446Z,4.17
2023-03-12T08:43:29.199Z,2.13
2023-03-12T08:45:58.277Z,4.83
2023-03-12T08:48:27.253Z,3.23
2023-03-12T08:50:56.991Z,1.90
2023-03-12T08:53:26.054Z,2.40
2023-03-12T08:55:55.296Z,2.23
2023-03-12T08:58:26.313Z,3.87
2023-03-12T09:00:55.872Z,3.70
2023-03-12T09:03:25.089Z,6.87
2023-03-12T09:06:04.194Z,4.50
2023-03-12T09:08:34.135Z,3.00
2023-03-12T09:11:03.108Z,3.93
2023-03-12T09:13:52.045Z,2.83
2023-03-12T09:16:21.474Z,2.13
2023-03-12T09:18:50.729Z,2.63
2023-03-12T09:21:19.124Z,2.40
2023-03-12T09:23:47.401Z,1.60
2023-03-12T09:26:15.895Z,2.50
2023-03-12T09:28:45.693Z,3.40
2023-03-12T09:31:14.292Z,2.23
2023-03-12T09:33:42.591Z,2.40
2023-03-12T09:36:10.975Z,1.70
2023-03-12T09:38:39.367Z,1.67
2023-03-12T09:41:16.625Z,1.60
2023-03-12T09:43:51.847Z,2.50
2023-03-12T09:46:27.178Z,4.00
2023-03-12T09:48:59.884Z,2.57
2023-03-12T09:51:34.832Z,2.27
2023-03-12T09:54:07.483Z,2.90
2023-03-12T09:56:36.182Z,2.23
2023-03-12T09:59:13.312Z,2.90
2023-03-12T10:01:49.286Z,2.00
2023-03-12T10:04:56.307Z,2.60
2023-03-12T10:07:31.411Z,2.97
2023-03-12T10:10:17.669Z,2.70
2023-03-12T10:13:04.153Z,2.20
2023-03-12T10:15:43.777Z,6.90
2023-03-12T10:18:22.708Z,2.47
2023-03-12T10:21:04.585Z,3.10
2023-03-12T10:23:46.702Z,5.57
2023-03-12T10:26:17.636Z,2.67
2023-03-12T10:28:50.418Z,5.10
2023-03-12T10:31:27.330Z,2.90
2023-03-12T10:33:58.850Z,4.10
2023-03-12T10:36:30.776Z,2.03
2023-03-12T10:38:58.889Z,3.20
2023-03-12T10:41:34.641Z,5.10
2023-03-12T10:44:08.881Z,2.40
2023-03-12T10:46:52.114Z,2.27
2023-03-12T10:49:32.926Z,3.50
2023-03-12T10:52:05.280Z,8.60
2023-03-12T10:54:36.393Z,5.43
2023-03-12T10:57:05.806Z,2.83
2023-03-12T10:59:36.660Z,3.20
2023-03-12T11:02:33.353Z,2.60
2023-03-12T11:05:04.897Z,2.30
2023-03-12T11:07:34.357Z,3.63
2023-03-12T11:10:19.312Z,3.60
2023-03-12T11:13:00.886Z,4.27
2023-03-12T11:15:32.331Z,2.20
2023-03-12T11:18:22.560Z,2.10
2023-03-12T11:20:53.128Z,3.57
2023-03-12T11:23:25.324Z,3.00
2023-03-12T11:25:55.797Z,2.13
2023-03-12T11:28:29.729Z,2.53
2023-03-12T11:30:59.639Z,3.17
2023-03-12T11:33:29.950Z,2.80
2023-03-12T11:36:09.917Z,2.13
2023-03-12T11:38:43.713Z,4.83
2023-03-12T11:41:28.018Z,2.20
2023-03-12T11:44:16.170Z,2.60
2023-03-12T11:46:57.917Z,2.87
2023-03-12T11:49:41.654Z,2.70
2023-03-12T11:52:18.091Z,2.03
2023-03-12T11:55:22.524Z,3.30
2023-03-12T11:58:03.689Z,2.73
2023-03-12T12:00:40.050Z,1.93
2023-03-12T12:03:36.281Z,2.00
2023-03-12T12:06:10.100Z,2.10
2023-03-12T12:08:56.213Z,5.83
2023-03-12T12:11:35.888Z,1.97
2023-03-12T12:14:17.749Z,2.40
2023-03-12T12:16:55.448Z,2.50
2023-03-12T12:19:41.287Z,2.70
2023-03-12T12:22:29.614Z,3.53
2023-03-12T12:25:22.934Z,2.00
2023-03-12T12:28:04.867Z,2.20
2023-03-12T12:30:49.938Z,2.20
2023-03-12T12:33:31.295Z,2.77
2023-03-12T12:36:00.256Z,3.43
2023-03-12T12:38:34.600Z,2.10
2023-03-12T12:41:09.393Z,2.90
2023-03-12T12:43:41.413Z,5.50
2023-03-12T12:46:14.742Z,2.40
2023-03-12T12:48:47.946Z,2.50
2023-03-12T12:51:21.530Z,2.10
2023-03-12T12:53:58.745Z,2.77
2023-03-12T12:56:33.779Z,4.53
2023-03-12T12:59:32.941Z,1.80
2023-03-12T13:02:03.655Z,2.77
2023-03-12T13:04:36.718Z,2.03
2023-03-12T13:07:27.936Z,2.97
2023-03-12T13:10:00.117Z,2.70
2023-03-12T13:12:33.376Z,2.10
2023-03-12T13:15:02.948Z,2.40
2023-03-12T13:17:34.942Z,2.20
2023-03-12T13:20:17.424Z,3.30
2023-03-12T13:23:26.283Z,1.93
2023-03-12T13:26:05.213Z,2.47
2023-03-12T13:28:42.567Z,3.70
2023-03-12T13:31:38.013Z,3.00
2023-03-12T13:34:46.456Z,3.17
2023-03-12T13:37:30.432Z,2.27
2023-03-12T13:40:08.548Z,5.57
2023-03-12T13:42:42.041Z,3.30
2023-03-12T13:45:28.408Z,2.50
2023-03-12T13:48:01.772Z,2.83
2023-03-12T13:50:32.670Z,2.63
2023-03-12T13:53:07.903Z,2.00
2023-03-12T13:55:37.861Z,2.10
2023-03-12T13:58:11.202Z,1.80
2023-03-12T14:00:42.780Z,2.27
2023-03-12T14:03:17.874Z,2.57
2023-03-12T14:05:53.703Z,3.47
2023-03-12T14:08:49.552Z,3.50
2023-03-12T14:11:34.015Z,3.43
2023-03-12T14:14:50.095Z,6.10
2023-03-12T14:17:22.081Z,2.13
2023-03-12T14:19:53.933Z,2.00
2023-03-12T14:22:24.658Z,3.10
2023-03-12T14:24:56.822Z,2.10
2023-03-12T14:27:30.320Z,1.80
2023-03-12T14:30:09.172Z,2.40
2023-03-12T14:32:38.660Z,3.10
2023-03-12T14:35:22.000Z,2.90
2023-03-12T14:37:58.826Z,2.17
2023-03-12T14:40:38.913Z,2.80
2023-03-12T14:43:25.896Z,3.93
2023-03-12T14:45:58.781Z,2.43
2023-03-12T14:48:31.267Z,2.73
2023-03-12T14:51:00.999Z,2.10
2023-03-12T14:53:31.454Z,5.43
2023-03-12T14:56:04.861Z,2.13
2023-03-12T14:58:34.036Z,1.90
2023-03-12T15:01:07.761Z,1.80
2023-03-12T15:03:43.146Z,3.93
2023-03-12T15:06:21.238Z,3.00
2023-03-12T15:08:49.939Z,3.23
2023-03-12T15:11:23.447Z,2.97
2023-03-12T15:13:53.696Z,2.60
2023-03-12T15:16:24.820Z,1.70
2023-03-12T15:18:53.596Z,3.63
2023-03-12T15:21:23.517Z,2.70
2023-03-12T15:23:52.781Z,2.57
2023-03-12T15:26:30.144Z,5.43
2023-03-12T15:29:00.124Z,2.20
2023-03-12T15:31:42.774Z,2.37
2023-03-12T15:34:13.251Z,4.40
2023-03-12T15:36:48.432Z,5.07
2023-03-12T15:39:27.252Z,4.50
2023-03-12T15:41:57.413Z,4.00
2023-03-12T15:44:28.119Z,7.20
2023-03-12T15:47:04.800Z,3.60
2023-03-12T15:49:36.388Z,3.20
2023-03-12T15:52:08.843Z,3.50
2023-03-12T15:54:40.605Z,3.70
2023-03-12T15:57:26.045Z,2.77
2023-03-12T16:00:18.952Z,4.67
2023-03-12T16:02:54.682Z,2.93
2023-03-12T16:05:25.039Z,3.57
2023-03-12T16:07:53.540Z,4.60
2023-03-12T16:10:24.189Z,4.70
2023-03-12T16:12:57.665Z,4.97
2023-03-12T16:15:31.034Z,6.40
2023-03-12T16:18:01.078Z,4.93
2023-03-12T16:20:30.039Z,7.07
2023-03-12T16:22:58.698Z,11.77
2023-03-12T16:25:28.788Z,6.77
2023-03-12T16:27:59.775Z,6.77
2023-03-12T16:30:30.665Z,5.67
2023-03-12T16:33:01.740Z,6.93
2023-03-12T16:35:31.494Z,8.33
2023-03-12T16:38:01.449Z,9.70
2023-03-12T16:40:33.834Z,8.17
2023-03-12T16:43:05.928Z,10.33
2023-03-12T16:45:37.132Z,10.87
2023-03-12T16:48:07.620Z,10.87
2023-03-12T16:50:35.857Z,10.63
2023-03-12T16:53:05.770Z,10.20
2023-03-12T16:55:45.689Z,12.53
2023-03-12T16:58:17.204Z,13.43
2023-03-12T17:00:46.428Z,9.63
2023-03-12T17:03:22.961Z,17.57
2023-03-12T17:05:51.196Z,12.97
2023-03-12T17:08:19.903Z,14.33
2023-03-12T17:10:48.269Z,11.80
2023-03-12T17:13:23.877Z,6.53
2023-03-12T17:15:53.289Z,5.20
2023-03-12T17:18:23.198Z,10.90
2023-03-12T17:20:52.201Z,3.63
2023-03-12T17:23:23.349Z,2.97
2023-03-12T17:25:51.641Z,4.63
2023-03-12T17:28:19.720Z,5.63
2023-03-12T17:30:48.769Z,4.17
2023-03-12T17:33:18.607Z,4.60
2023-03-12T17:35:48.303Z,5.20
2023-03-12T17:38:16.579Z,6.73
2023-03-12T17:40:45.839Z,4.80
2023-03-12T17:43:14.069Z,5.93
2023-03-12T17:45:42.225Z,8.77
2023-03-12T17:48:10.589Z,5.93
2023-03-12T17:50:53.670Z,6.73
2023-03-12T17:53:24.368Z,3.07
2023-03-12T17:55:53.355Z,6.70
2023-03-12T17:58:22.932Z,4.27
2023-03-12T18:00:51.034Z,5.50
2023-03-12T18:03:19.220Z,5.23
2023-03-12T18:05:51.169Z,5.10
2023-03-12T18:08:19.561Z,7.83
2023-03-12T18:10:50.299Z,4.70
2023-03-12T18:13:18.673Z,4.20
2023-03-12T18:15:53.563Z,4.07
2023-03-12T18:18:22.498Z,12.27
2023-03-12T18:20:51.345Z,12.57
2023-03-12T18:23:19.854Z,13.30
2023-03-12T18:25:49.976Z,12.07
2023-03-12T18:28:18.219Z,13.90
2023-03-12T18:30:47.436Z,6.47
2023-03-12T18:33:15.841Z,5.37
2023-03-12T18:35:45.250Z,6.73
2023-03-12T18:38:13.362Z,6.60
2023-03-12T18:40:41.515Z,5.90
2023-03-12T18:43:11.933Z,8.40
2023-03-12T18:45:44.187Z,7.20
2023-03-12T18:48:12.404Z,7.93
2023-03-12T18:50:40.721Z,3.07
2023-03-12T18:53:08.803Z,4.90
2023-03-12T18:55:36.967Z,3.87
2023-03-12T18:58:05.170Z,4.37
2023-03-12T19:00:34.985Z,6.03
2023-03-12T19:03:03.100Z,3.67
2023-03-12T19:05:32.561Z,3.43
2023-03-12T19:08:00.721Z,6.20
2023-03-12T19:10:29.040Z,5.13
2023-03-12T19:12:58.973Z,4.60
2023-03-12T19:15:27.252Z,5.37
2023-03-12T19:17:57.239Z,3.83
2023-03-12T19:20:25.749Z,9.10
2023-03-12T19:22:53.985Z,6.40
2023-03-12T19:25:22.169Z,7.77
2023-03-12T19:27:50.182Z,4.70
2023-03-12T19:30:18.749Z,6.77
2023-03-12T19:32:46.995Z,7.83
2023-03-12T19:35:17.344Z,11.30
2023-03-12T19:37:45.545Z,7.07
2023-03-12T19:40:14.587Z,6.83
2023-03-12T19:42:42.857Z,4.90
2023-03-12T19:45:14.350Z,4.00
2023-03-12T19:47:42.925Z,6.97
2023-03-12T19:50:12.963Z,5.87
2023-03-12T19:52:43.004Z,6.03
2023-03-12T19:55:12.108Z,5.07
2023-03-12T19:57:40.885Z,5.40
2023-03-12T20:00:14.340Z,9.87
2023-03-12T20:02:42.879Z,12.17
2023-03-12T20:05:11.624Z,6.17
2023-03-12T20:07:40.422Z,6.03
2023-03-12T20:10:12.945Z,7.20
2023-03-12T20:12:41.141Z,10.23
2023-03-12T20:15:10.010Z,9.07
2023-03-12T20:17:38.573Z,8.67
2023-03-12T20:20:09.309Z,8.93
2023-03-12T20:22:37.404Z,6.93
2023-03-12T20:25:06.861Z,8.47
2023-03-12T20:27:36.754Z,8.80
2023-03-12T20:30:05.771Z,9.13
2023-03-12T20:32:34.104Z,14.90
2023-03-12T20:35:02.446Z,16.53
2023-03-12T20:37:33.600Z,12.47
2023-03-12T20:40:02.240Z,12.67
2023-03-12T20:42:30.891Z,13.10
2023-03-12T20:45:01.141Z,12.53
2023-03-12T20:47:31.406Z,14.77
2023-03-12T20:50:01.393Z,13.67
2023-03-12T20:52:30.882Z,15.93
2023-03-12T20:54:59.934Z,16.83
2023-03-12T20:57:30.475Z,15.23
2023-03-12T21:00:02.477Z,14.83
2023-03-12T21:02:31.122Z,12.87
2023-03-12T21:05:01.119Z,14.93
2023-03-12T21:07:29.310Z,16.77
2023-03-12T21:09:58.154Z,11.03
2023-03-12T21:12:26.652Z,14.43
2023-03-12T21:14:54.933Z,23.23
2023-03-12T21:17:24.801Z,13.23
2023-03-12T21:19:54.154Z,27.63
2023-03-12T21:22:22.509Z,13.77
2023-03-12T21:24:51.664Z,12.63
2023-03-12T21:27:20.140Z,18.97
2023-03-12T21:29:48.552Z,14.93
2023-03-12T21:32:17.257Z,6.67
2023-03-12T21:34:47.626Z,9.00
2023-03-12T21:37:16.108Z,9.80
2023-03-12T21:39:44.922Z,5.97
2023-03-12T21:42:14.147Z,14.70
2023-03-12T21:44:42.531Z,7.67
2023-03-12T21:47:10.763Z,8.23
2023-03-12T21:49:39.352Z,7.53
2023-03-12T21:52:08.897Z,6.53
2023-03-12T21:54:38.002Z,8.20
2023-03-12T21:57:06.767Z,8.80
2023-03-12T21:59:34.845Z,11.53
2023-03-12T22:02:03.009Z,10.43
2023-03-12T22:04:32.257Z,9.70
2023-03-12T22:07:00.330Z,9.23
2023-03-12T22:09:30.744Z,13.20
2023-03-12T22:11:58.996Z,9.20
2023-03-12T22:14:28.270Z,8.40
2023-03-12T22:16:56.741Z,9.13
2023-03-12T22:19:24.776Z,7.00
2023-03-12T22:21:53.101Z,8.13
2023-03-12T22:24:21.190Z,8.37
2023-03-12T22:26:50.737Z,6.37
2023-03-12T22:29:18.810Z,10.03
2023-03-12T22:31:46.926Z,9.37
2023-03-12T22:34:15.130Z,8.00
2023-03-12T22:36:43.737Z,8.33
2023-03-12T22:39:11.959Z,7.03
2023-03-12T22:41:41.115Z,7.53
2023-03-12T22:44:11.011Z,5.67
2023-03-12T22:46:39.848Z,6.80
2023-03-12T22:49:07.984Z,7.63
2023-03-12T22:51:36.455Z,5.23
2023-03-12T22:54:04.625Z,5.57
2023-03-12T22:56:32.802Z,6.40
2023-03-12T22:59:00.912Z,5.10
2023-03-12T23:01:30.476Z,7.73
2023-03-12T23:03:59.901Z,5.10
2023-03-12T23:06:30.140Z,3.97
2023-03-12T23:08:59.012Z,8.00
2023-03-12T23:11:29.832Z,4.23
2023-03-12T23:13:58.100Z,5.60
2023-03-12T23:16:27.746Z,5.63
2023-03-12T23:18:57.456Z,5.43
2023-03-12T23:21:26.347Z,4.53
2023-03-12T23:23:54.614Z,5.83
2023-03-12T23:26:24.603Z,4.70
2023-03-12T23:28:53.575Z,6.50
2023-03-12T23:31:22.863Z,7.90
2023-03-12T23:33:51.065Z,5.37
2023-03-12T23:36:22.621Z,4.80
2023-03-12T23:38:51.510Z,6.47
2023-03-12T23:41:21.619Z,6.07
2023-03-12T23:43:49.799Z,6.00
2023-03-12T23:46:18.578Z,7.97
2023-03-12T23:48:47.393Z,5.63
2023-03-12T23:51:17.486Z,5.20
2023-03-12T23:53:48.482Z,11.67
2023-03-12T23:56:20.787Z,12.47
2023-03-12T23:58:49.460Z,5.90
